aviador You're here:

LFRS Decoded Metar

NANTES in FRANCE
Report Time2017-11-25 07:00:00
UTC Time2017-11-25 07:31:20
Flight Rules vfr VFR
Wind300° at 09 kt
W.Decomp.*RWY 03: 0.3 kt HW 9 kt LCW
W.Rank300° ranks 15
Current wind is above 300° avg. (6.4)
Visibility9999 m
Phenomena:N/A
Clouds:N/A
Expected CloudBase > 800 ft AGL from Temp-Dew spread
CeilingNone
Temp05°C (ISA -10)
Dew Point03°C (87% RH)
AAT0.3°C
QNH1019 hPa
Density Alt-1,198 ft
Elevation89 ft
Report Wrong Elevation
Raw Report
LFRS 250700Z AUTO 30009KT CAVOK 05/03 Q1019 NOSIG=

Extra information for LFRS:More info

Metar Taf Metar & Taf Last 4 Metars F.Rules Stats Wind Profile Meteogram Temp Stats Airport Information Weather charts Add Link Nearby VenuesMetar ALERT Operation Metar Decoded Social comments